sensor_id;sensor_type;location;lat;lon;timestamp;pressure;altitude;pressure_sealevel;temperature;humidity
74045;BME280;62389;51.412;5.436;2023-05-21T00:01:49;101694.47;;;14.77;66.60
74045;BME280;62389;51.412;5.436;2023-05-21T00:04:14;101687.56;;;14.75;66.02
74045;BME280;62389;51.412;5.436;2023-05-21T00:06:40;101692.06;;;14.73;66.71
74045;BME280;62389;51.412;5.436;2023-05-21T00:09:05;101691.28;;;14.71;66.18
74045;BME280;62389;51.412;5.436;2023-05-21T00:11:31;101692.28;;;14.68;67.34
74045;BME280;62389;51.412;5.436;2023-05-21T00:13:56;101688.94;;;14.65;66.93
74045;BME280;62389;51.412;5.436;2023-05-21T00:16:22;101687.31;;;14.62;66.65
74045;BME280;62389;51.412;5.436;2023-05-21T00:18:48;101687.38;;;14.61;66.70
74045;BME280;62389;51.412;5.436;2023-05-21T00:21:17;101683.03;;;14.60;67.27
74045;BME280;62389;51.412;5.436;2023-05-21T00:23:46;101682.38;;;14.55;67.89
74045;BME280;62389;51.412;5.436;2023-05-21T00:26:12;101676.44;;;14.51;67.79
74045;BME280;62389;51.412;5.436;2023-05-21T00:28:37;101670.44;;;14.47;67.27
74045;BME280;62389;51.412;5.436;2023-05-21T00:31:02;101667.00;;;14.45;68.02
74045;BME280;62389;51.412;5.436;2023-05-21T00:33:28;101676.75;;;14.43;67.44
74045;BME280;62389;51.412;5.436;2023-05-21T00:35:54;101670.63;;;14.43;67.85
74045;BME280;62389;51.412;5.436;2023-05-21T00:38:22;101675.91;;;14.43;67.32
74045;BME280;62389;51.412;5.436;2023-05-21T00:40:48;101668.94;;;14.42;67.91
74045;BME280;62389;51.412;5.436;2023-05-21T00:43:13;101674.19;;;14.42;67.54
74045;BME280;62389;51.412;5.436;2023-05-21T00:45:41;101667.28;;;14.39;67.22
74045;BME280;62389;51.412;5.436;2023-05-21T00:48:08;101666.50;;;14.37;67.82
74045;BME280;62389;51.412;5.436;2023-05-21T00:50:34;101667.44;;;14.36;67.68
74045;BME280;62389;51.412;5.436;2023-05-21T00:53:00;101670.06;;;14.36;67.13
74045;BME280;62389;51.412;5.436;2023-05-21T00:55:25;101664.94;;;14.33;67.74
74045;BME280;62389;51.412;5.436;2023-05-21T00:57:51;101662.31;;;14.33;68.07
74045;BME280;62389;51.412;5.436;2023-05-21T01:00:16;101670.28;;;14.32;68.13
74045;BME280;62389;51.412;5.436;2023-05-21T01:02:42;101659.97;;;14.27;68.99
74045;BME280;62389;51.412;5.436;2023-05-21T01:05:08;101661.09;;;14.21;68.68
74045;BME280;62389;51.412;5.436;2023-05-21T01:07:36;101662.00;;;14.20;68.72
74045;BME280;62389;51.412;5.436;2023-05-21T01:10:04;101652.50;;;14.18;68.04
74045;BME280;62389;51.412;5.436;2023-05-21T01:12:31;101663.78;;;14.20;68.26
74045;BME280;62389;51.412;5.436;2023-05-21T01:15:01;101663.88;;;14.18;68.01
74045;BME280;62389;51.412;5.436;2023-05-21T01:17:28;101656.97;;;14.16;68.78
74045;BME280;62389;51.412;5.436;2023-05-21T01:19:58;101662.28;;;14.14;68.24
74045;BME280;62389;51.412;5.436;2023-05-21T01:22:25;101661.44;;;14.14;68.73
74045;BME280;62389;51.412;5.436;2023-05-21T01:24:53;101660.72;;;14.10;68.45
74045;BME280;62389;51.412;5.436;2023-05-21T01:27:19;101653.84;;;14.08;69.02
74045;BME280;62389;51.412;5.436;2023-05-21T01:29:45;101648.56;;;14.08;68.48
74045;BME280;62389;51.412;5.436;2023-05-21T01:35:12;101658.38;;;14.04;68.03
74045;BME280;62389;51.412;5.436;2023-05-21T01:37:56;101652.38;;;14.00;68.27
74045;BME280;62389;51.412;5.436;2023-05-21T01:40:32;101654.31;;;13.97;68.94
74045;BME280;62389;51.412;5.436;2023-05-21T01:42:58;101650.03;;;13.94;69.51
74045;BME280;62389;51.412;5.436;2023-05-21T01:45:25;101644.84;;;13.93;69.80
74045;BME280;62389;51.412;5.436;2023-05-21T01:47:53;101651.91;;;13.92;69.42
74045;BME280;62389;51.412;5.436;2023-05-21T01:50:22;101663.34;;;13.91;69.32
74045;BME280;62389;51.412;5.436;2023-05-21T01:52:52;101645.81;;;13.90;69.75
74045;BME280;62389;51.412;5.436;2023-05-21T01:55:20;101643.28;;;13.89;69.87
74045;BME280;62389;51.412;5.436;2023-05-21T01:57:52;101653.88;;;13.87;69.49
74045;BME280;62389;51.412;5.436;2023-05-21T02:00:21;101646.84;;;13.88;69.56
74045;BME280;62389;51.412;5.436;2023-05-21T02:02:47;101642.53;;;13.85;69.64
74045;BME280;62389;51.412;5.436;2023-05-21T02:05:13;101639.06;;;13.85;70.07
74045;BME280;62389;51.412;5.436;2023-05-21T02:07:38;101644.41;;;13.83;70.30
74045;BME280;62389;51.412;5.436;2023-05-21T02:10:05;101645.34;;;13.82;70.14
74045;BME280;62389;51.412;5.436;2023-05-21T02:12:30;101647.16;;;13.80;69.79
74045;BME280;62389;51.412;5.436;2023-05-21T02:14:56;101651.56;;;13.80;70.17
74045;BME280;62389;51.412;5.436;2023-05-21T02:17:21;101636.81;;;13.77;70.23
74045;BME280;62389;51.412;5.436;2023-05-21T02:19:48;101636.00;;;13.75;70.54
74045;BME280;62389;51.412;5.436;2023-05-21T02:22:14;101645.66;;;13.74;70.14
74045;BME280;62389;51.412;5.436;2023-05-21T02:24:39;101647.59;;;13.71;70.13
74045;BME280;62389;51.412;5.436;2023-05-21T02:27:05;101640.69;;;13.68;70.73
74045;BME280;62389;51.412;5.436;2023-05-21T02:29:31;101641.69;;;13.66;71.10
74045;BME280;62389;51.412;5.436;2023-05-21T02:31:56;101635.69;;;13.62;70.96
74045;BME280;62389;51.412;5.436;2023-05-21T02:34:22;101637.50;;;13.60;70.66
74045;BME280;62389;51.412;5.436;2023-05-21T02:36:49;101640.22;;;13.59;70.54
74045;BME280;62389;51.412;5.436;2023-05-21T02:39:17;101641.91;;;13.60;70.73
74045;BME280;62389;51.412;5.436;2023-05-21T02:41:42;101639.28;;;13.60;71.16
74045;BME280;62389;51.412;5.436;2023-05-21T02:44:08;101636.75;;;13.58;70.86
74045;BME280;62389;51.412;5.436;2023-05-21T02:46:33;101634.13;;;13.58;71.03
74045;BME280;62389;51.412;5.436;2023-05-21T02:48:59;101635.13;;;13.56;71.27
74045;BME280;62389;51.412;5.436;2023-05-21T02:51:24;101627.28;;;13.54;71.24
74045;BME280;62389;51.412;5.436;2023-05-21T02:53:49;101626.56;;;13.51;71.57
74045;BME280;62389;51.412;5.436;2023-05-21T02:56:14;101623.06;;;13.50;71.49
74045;BME280;62389;51.412;5.436;2023-05-21T02:58:40;101625.69;;;13.50;71.52
74045;BME280;62389;51.412;5.436;2023-05-21T03:01:07;101621.31;;;13.51;71.29
74045;BME280;62389;51.412;5.436;2023-05-21T03:03:32;101617.81;;;13.50;71.90
74045;BME280;62389;51.412;5.436;2023-05-21T03:05:57;101608.22;;;13.49;71.30
74045;BME280;62389;51.412;5.436;2023-05-21T03:08:23;101610.81;;;13.51;71.95
74045;BME280;62389;51.412;5.436;2023-05-21T03:10:49;101609.06;;;13.50;71.61
74045;BME280;62389;51.412;5.436;2023-05-21T03:13:14;101616.09;;;13.49;71.87
74045;BME280;62389;51.412;5.436;2023-05-21T03:15:39;101607.38;;;13.48;71.97
74045;BME280;62389;51.412;5.436;2023-05-21T03:18:05;101604.75;;;13.48;72.21
74045;BME280;62389;51.412;5.436;2023-05-21T03:20:30;101614.41;;;13.48;71.96
74045;BME280;62389;51.412;5.436;2023-05-21T03:22:56;101607.38;;;13.48;71.75
74045;BME280;62389;51.412;5.436;2023-05-21T03:25:22;101608.31;;;13.47;71.89
74045;BME280;62389;51.412;5.436;2023-05-21T03:27:49;101601.34;;;13.46;72.53
74045;BME280;62389;51.412;5.436;2023-05-21T03:30:15;101611.00;;;13.46;72.49
74045;BME280;62389;51.412;5.436;2023-05-21T03:32:40;101611.91;;;13.45;72.55
74045;BME280;62389;51.412;5.436;2023-05-21T03:35:06;101617.16;;;13.45;72.31
74045;BME280;62389;51.412;5.436;2023-05-21T03:37:31;101611.06;;;13.44;72.90
74045;BME280;62389;51.412;5.436;2023-05-21T03:39:56;101610.28;;;13.42;72.63
74045;BME280;62389;51.412;5.436;2023-05-21T03:42:22;101607.66;;;13.42;72.62
74045;BME280;62389;51.412;5.436;2023-05-21T03:44:47;101612.97;;;13.41;72.59
74045;BME280;62389;51.412;5.436;2023-05-21T03:47:12;101604.25;;;13.40;73.37
74045;BME280;62389;51.412;5.436;2023-05-21T03:49:38;101607.78;;;13.39;72.99
74045;BME280;62389;51.412;5.436;2023-05-21T03:52:03;101595.56;;;13.38;73.23
74045;BME280;62389;51.412;5.436;2023-05-21T03:54:29;101599.19;;;13.36;73.42
74045;BME280;62389;51.412;5.436;2023-05-21T03:56:54;101604.44;;;13.36;73.36
74045;BME280;62389;51.412;5.436;2023-05-21T03:59:19;101596.47;;;13.37;73.38
74045;BME280;62389;51.412;5.436;2023-05-21T04:01:45;101600.03;;;13.36;73.89
74045;BME280;62389;51.412;5.436;2023-05-21T04:04:11;101593.97;;;13.34;73.63
74045;BME280;62389;51.412;5.436;2023-05-21T04:06:36;101594.81;;;13.35;73.89
74045;BME280;62389;51.412;5.436;2023-05-21T04:09:02;101600.09;;;13.35;73.65
74045;BME280;62389;51.412;5.436;2023-05-21T04:11:29;101603.50;;;13.37;74.12
74045;BME280;62389;51.412;5.436;2023-05-21T04:13:55;101601.84;;;13.34;73.71
74045;BME280;62389;51.412;5.436;2023-05-21T04:16:21;101611.44;;;13.35;73.74
74045;BME280;62389;51.412;5.436;2023-05-21T04:18:46;101608.81;;;13.35;74.26
74045;BME280;62389;51.412;5.436;2023-05-21T04:21:12;101610.53;;;13.36;74.14
74045;BME280;62389;51.412;5.436;2023-05-21T04:23:37;101612.25;;;13.37;74.25
74045;BME280;62389;51.412;5.436;2023-05-21T04:26:03;101615.72;;;13.38;74.58
74045;BME280;62389;51.412;5.436;2023-05-21T04:28:28;101618.34;;;13.38;74.37
74045;BME280;62389;51.412;5.436;2023-05-21T04:30:54;101622.69;;;13.39;74.46
74045;BME280;62389;51.412;5.436;2023-05-21T04:33:21;101616.50;;;13.40;74.48
74045;BME280;62389;51.412;5.436;2023-05-21T04:35:48;101619.13;;;13.40;74.21
74045;BME280;62389;51.412;5.436;2023-05-21T04:38:14;101627.75;;;13.43;74.47
74045;BME280;62389;51.412;5.436;2023-05-21T04:40:44;101623.34;;;13.44;74.76
74045;BME280;62389;51.412;5.436;2023-05-21T04:43:09;101633.81;;;13.45;74.69
74045;BME280;62389;51.412;5.436;2023-05-21T04:45:35;101624.16;;;13.46;74.97
74045;BME280;62389;51.412;5.436;2023-05-21T04:48:00;101623.16;;;13.48;74.97
74045;BME280;62389;51.412;5.436;2023-05-21T04:50:26;101631.84;;;13.51;74.82
74045;BME280;62389;51.412;5.436;2023-05-21T04:52:55;101629.13;;;13.52;74.57
74045;BME280;62389;51.412;5.436;2023-05-21T04:55:20;101620.25;;;13.55;74.42
74045;BME280;62389;51.412;5.436;2023-05-21T04:57:47;101632.50;;;13.56;74.96
74045;BME280;62389;51.412;5.436;2023-05-21T05:00:12;101627.06;;;13.59;74.73
74045;BME280;62389;51.412;5.436;2023-05-21T05:02:38;101624.31;;;13.62;74.30
74045;BME280;62389;51.412;5.436;2023-05-21T05:05:03;101624.25;;;13.63;74.99
74045;BME280;62389;51.412;5.436;2023-05-21T05:07:29;101613.66;;;13.65;75.06
74045;BME280;62389;51.412;5.436;2023-05-21T05:09:55;101617.09;;;13.67;74.54
74045;BME280;62389;51.412;5.436;2023-05-21T05:12:20;101613.47;;;13.69;74.63
74045;BME280;62389;51.412;5.436;2023-05-21T05:14:46;101615.97;;;13.72;74.53
74045;BME280;62389;51.412;5.436;2023-05-21T05:17:11;101615.84;;;13.76;74.43
74045;BME280;62389;51.412;5.436;2023-05-21T05:19:39;101608.66;;;13.79;74.48
74045;BME280;62389;51.412;5.436;2023-05-21T05:22:05;101611.16;;;13.82;74.88
74045;BME280;62389;51.412;5.436;2023-05-21T05:24:31;101610.16;;;13.85;74.90
74045;BME280;62389;51.412;5.436;2023-05-21T05:26:56;101609.16;;;13.87;74.55
74045;BME280;62389;51.412;5.436;2023-05-21T05:29:21;101605.53;;;13.90;73.91
74045;BME280;62389;51.412;5.436;2023-05-21T05:31:47;101605.41;;;13.93;74.60
74045;BME280;62389;51.412;5.436;2023-05-21T05:34:12;101606.97;;;13.97;73.86
74045;BME280;62389;51.412;5.436;2023-05-21T05:36:37;101608.59;;;13.99;74.38
74045;BME280;62389;51.412;5.436;2023-05-21T05:39:03;101616.34;;;14.03;74.56
74045;BME280;62389;51.412;5.436;2023-05-21T05:41:28;101620.56;;;14.07;74.37
74045;BME280;62389;51.412;5.436;2023-05-21T05:43:54;101618.72;;;14.09;74.66
74045;BME280;62389;51.412;5.436;2023-05-21T05:46:19;101623.00;;;14.11;74.53
74045;BME280;62389;51.412;5.436;2023-05-21T05:48:44;101620.19;;;14.14;74.20
74045;BME280;62389;51.412;5.436;2023-05-21T05:51:10;101613.88;;;14.18;74.20
74045;BME280;62389;51.412;5.436;2023-05-21T05:53:36;101612.91;;;14.21;74.32
74045;BME280;62389;51.412;5.436;2023-05-21T05:56:02;101619.69;;;14.25;74.18
74045;BME280;62389;51.412;5.436;2023-05-21T05:58:28;101608.97;;;14.30;74.16
74045;BME280;62389;51.412;5.436;2023-05-21T06:00:54;101616.63;;;14.34;74.49
74045;BME280;62389;51.412;5.436;2023-05-21T06:03:19;101626.94;;;14.39;74.82
74045;BME280;62389;51.412;5.436;2023-05-21T06:05:45;101618.13;;;14.40;74.11
74045;BME280;62389;51.412;5.436;2023-05-21T06:08:10;101610.94;;;14.43;74.64
74045;BME280;62389;51.412;5.436;2023-05-21T06:10:36;101611.72;;;14.45;74.13
74045;BME280;62389;51.412;5.436;2023-05-21T06:13:01;101611.66;;;14.47;73.66
74045;BME280;62389;51.412;5.436;2023-05-21T06:15:26;101610.69;;;14.49;73.77
74045;BME280;62389;51.412;5.436;2023-05-21T06:17:52;101611.41;;;14.53;73.76
74045;BME280;62389;51.412;5.436;2023-05-21T06:20:17;101616.53;;;14.56;73.73
74045;BME280;62389;51.412;5.436;2023-05-21T06:22:42;101616.44;;;14.58;73.66
74045;BME280;62389;51.412;5.436;2023-05-21T06:25:08;101611.00;;;14.61;73.86
74045;BME280;62389;51.412;5.436;2023-05-21T06:27:36;101610.97;;;14.62;73.74
74045;BME280;62389;51.412;5.436;2023-05-21T06:30:01;101616.84;;;14.67;74.09
74045;BME280;62389;51.412;5.436;2023-05-21T06:32:27;101624.53;;;14.72;73.53
74045;BME280;62389;51.412;5.436;2023-05-21T06:34:52;101621.59;;;14.78;74.22
74045;BME280;62389;51.412;5.436;2023-05-21T06:37:18;101620.56;;;14.81;74.19
74045;BME280;62389;51.412;5.436;2023-05-21T06:39:47;101628.19;;;14.87;73.70
74045;BME280;62389;51.412;5.436;2023-05-21T06:42:12;101619.91;;;14.94;74.20
74045;BME280;62389;51.412;5.436;2023-05-21T06:44:37;101627.50;;;15.00;73.06
74045;BME280;62389;51.412;5.436;2023-05-21T06:47:03;101615.88;;;15.05;72.60
74045;BME280;62389;51.412;5.436;2023-05-21T06:49:28;101615.75;;;15.08;72.70
74045;BME280;62389;51.412;5.436;2023-05-21T06:51:54;101612.09;;;15.10;72.71
74045;BME280;62389;51.412;5.436;2023-05-21T06:54:19;101608.28;;;15.16;72.94
74045;BME280;62389;51.412;5.436;2023-05-21T06:56:44;101614.03;;;15.24;72.18
74045;BME280;62389;51.412;5.436;2023-05-21T06:59:10;101610.00;;;15.34;72.67
74045;BME280;62389;51.412;5.436;2023-05-21T07:01:35;101604.41;;;15.40;71.97
74045;BME280;62389;51.412;5.436;2023-05-21T07:04:01;101608.59;;;15.44;71.94
74045;BME280;62389;51.412;5.436;2023-05-21T07:06:26;101600.59;;;15.46;72.08
74045;BME280;62389;51.412;5.436;2023-05-21T07:08:52;101599.59;;;15.48;71.80
74045;BME280;62389;51.412;5.436;2023-05-21T07:11:17;101600.28;;;15.52;72.12
74045;BME280;62389;51.412;5.436;2023-05-21T07:13:43;101606.25;;;15.55;72.51
74045;BME280;62389;51.412;5.436;2023-05-21T07:16:08;101596.31;;;15.61;72.48
74045;BME280;62389;51.412;5.436;2023-05-21T07:18:33;101591.66;;;15.66;72.11
74045;BME280;62389;51.412;5.436;2023-05-21T07:20:59;101597.50;;;15.72;72.36
74045;BME280;62389;51.412;5.436;2023-05-21T07:23:24;101591.13;;;15.76;72.47
74045;BME280;62389;51.412;5.436;2023-05-21T07:25:49;101599.72;;;15.80;72.03
74045;BME280;62389;51.412;5.436;2023-05-21T07:28:15;101589.84;;;15.84;71.45
74045;BME280;62389;51.412;5.436;2023-05-21T07:30:40;101593.94;;;15.89;71.42
74045;BME280;62389;51.412;5.436;2023-05-21T07:33:06;101590.03;;;15.96;71.08
74045;BME280;62389;51.412;5.436;2023-05-21T07:35:31;101595.66;;;16.06;72.57
74045;BME280;62389;51.412;5.436;2023-05-21T07:37:56;101596.19;;;16.13;71.52
74045;BME280;62389;51.412;5.436;2023-05-21T07:40:22;101597.72;;;16.17;70.91
74045;BME280;62389;51.412;5.436;2023-05-21T07:42:47;101589.47;;;16.23;70.27
74045;BME280;62389;51.412;5.436;2023-05-21T07:45:12;101594.41;;;16.29;70.85
74045;BME280;62389;51.412;5.436;2023-05-21T07:47:38;101594.06;;;16.35;70.77
74045;BME280;62389;51.412;5.436;2023-05-21T07:50:04;101593.72;;;16.41;71.42
74045;BME280;62389;51.412;5.436;2023-05-21T07:52:29;101590.91;;;16.44;69.24
74045;BME280;62389;51.412;5.436;2023-05-21T07:54:55;101585.28;;;16.50;70.85
74045;BME280;62389;51.412;5.436;2023-05-21T07:57:20;101589.28;;;16.57;70.07
74045;BME280;62389;51.412;5.436;2023-05-21T07:59:46;101585.34;;;16.65;70.59
74045;BME280;62389;51.412;5.436;2023-05-21T08:02:11;101580.66;;;16.70;70.52
74045;BME280;62389;51.412;5.436;2023-05-21T08:04:36;101595.16;;;16.78;69.43
74045;BME280;62389;51.412;5.436;2023-05-21T08:07:02;101600.94;;;16.85;69.30
74045;BME280;62389;51.412;5.436;2023-05-21T08:09:28;101593.47;;;16.92;69.04
74045;BME280;62389;51.412;5.436;2023-05-21T08:11:53;101592.09;;;17.00;70.15
74045;BME280;62389;51.412;5.436;2023-05-21T08:14:18;101584.59;;;17.08;69.62
74045;BME280;62389;51.412;5.436;2023-05-21T08:16:45;101577.81;;;17.19;68.72
74045;BME280;62389;51.412;5.436;2023-05-21T08:19:10;101568.56;;;17.26;68.37
74045;BME280;62389;51.412;5.436;2023-05-21T08:21:35;101576.16;;;17.32;67.56
74045;BME280;62389;51.412;5.436;2023-05-21T08:24:01;101575.94;;;17.35;68.24
74045;BME280;62389;51.412;5.436;2023-05-21T08:26:27;101568.69;;;17.39;67.77
74045;BME280;62389;51.412;5.436;2023-05-21T08:28:53;101571.06;;;17.43;67.77
74045;BME280;62389;51.412;5.436;2023-05-21T08:31:18;101569.94;;;17.47;67.95
74045;BME280;62389;51.412;5.436;2023-05-21T08:33:50;101565.84;;;17.56;67.49
74045;BME280;62389;51.412;5.436;2023-05-21T08:36:17;101569.56;;;17.68;68.50
74045;BME280;62389;51.412;5.436;2023-05-21T08:38:42;101567.28;;;17.76;67.57
74045;BME280;62389;51.412;5.436;2023-05-21T08:41:08;101566.72;;;17.85;66.47
74045;BME280;62389;51.412;5.436;2023-05-21T08:43:36;101563.31;;;17.97;67.81
74045;BME280;62389;51.412;5.436;2023-05-21T08:46:03;101558.66;;;18.15;67.70
74045;BME280;62389;51.412;5.436;2023-05-21T08:48:29;101564.28;;;18.37;66.43
74045;BME280;62389;51.412;5.436;2023-05-21T08:50:55;101557.84;;;18.69;65.36
74045;BME280;62389;51.412;5.436;2023-05-21T08:53:21;101563.91;;;18.83;64.03
74045;BME280;62389;51.412;5.436;2023-05-21T08:55:52;101558.53;;;18.98;63.50
74045;BME280;62389;51.412;5.436;2023-05-21T08:58:18;101564.28;;;19.30;63.65
74045;BME280;62389;51.412;5.436;2023-05-21T09:00:44;101554.31;;;19.46;63.01
74045;BME280;62389;51.412;5.436;2023-05-21T09:03:09;101548.38;;;19.55;63.20
74045;BME280;62389;51.412;5.436;2023-05-21T09:05:39;101555.91;;;19.61;63.53
74045;BME280;62389;51.412;5.436;2023-05-21T09:08:06;101555.47;;;19.67;61.06
74045;BME280;62389;51.412;5.436;2023-05-21T09:10:40;101543.25;;;19.90;63.00
74045;BME280;62389;51.412;5.436;2023-05-21T09:13:07;101547.50;;;20.54;60.52
74045;BME280;62389;51.412;5.436;2023-05-21T09:15:33;101557.09;;;21.60;58.28
74045;BME280;62389;51.412;5.436;2023-05-21T09:17:58;101551.72;;;22.81;55.89
74045;BME280;62389;51.412;5.436;2023-05-21T09:20:25;101547.47;;;24.02;51.88
74045;BME280;62389;51.412;5.436;2023-05-21T09:22:51;101555.56;;;24.70;48.36
74045;BME280;62389;51.412;5.436;2023-05-21T09:25:24;101547.09;;;25.03;48.71
74045;BME280;62389;51.412;5.436;2023-05-21T09:27:57;101553.00;;;25.26;48.71
74045;BME280;62389;51.412;5.436;2023-05-21T09:30:23;101552.13;;;25.36;46.63
74045;BME280;62389;51.412;5.436;2023-05-21T09:32:56;101557.00;;;25.50;47.51
74045;BME280;62389;51.412;5.436;2023-05-21T09:35:22;101547.09;;;25.60;45.63
74045;BME280;62389;51.412;5.436;2023-05-21T09:37:48;101547.47;;;25.75;46.68
74045;BME280;62389;51.412;5.436;2023-05-21T09:42:41;101544.06;;;25.82;43.91
74045;BME280;62389;51.412;5.436;2023-05-21T09:45:08;101546.56;;;26.29;44.52
74045;BME280;62389;51.412;5.436;2023-05-21T09:47:33;101553.91;;;26.99;47.63
74045;BME280;62389;51.412;5.436;2023-05-21T09:49:59;101547.59;;;27.60;41.66
74045;BME280;62389;51.412;5.436;2023-05-21T09:52:25;101539.56;;;27.68;40.53
74045;BME280;62389;51.412;5.436;2023-05-21T09:54:51;101534.59;;;27.13;41.62
74045;BME280;62389;51.412;5.436;2023-05-21T09:57:25;101530.19;;;26.32;44.82
74045;BME280;62389;51.412;5.436;2023-05-21T09:59:50;101531.13;;;25.68;44.70
74045;BME280;62389;51.412;5.436;2023-05-21T10:02:20;101530.78;;;25.16;47.52
74045;BME280;62389;51.412;5.436;2023-05-21T10:04:48;101539.25;;;24.63;47.25
74045;BME280;62389;51.412;5.436;2023-05-21T10:07:19;101530.06;;;24.17;48.39
74045;BME280;62389;51.412;5.436;2023-05-21T10:09:51;101530.97;;;23.87;49.15
74045;BME280;62389;51.412;5.436;2023-05-21T10:12:17;101517.41;;;23.69;51.39
74045;BME280;62389;51.412;5.436;2023-05-21T10:14:45;101524.03;;;23.65;51.26
74045;BME280;62389;51.412;5.436;2023-05-21T10:17:11;101520.38;;;23.36;51.48
74045;BME280;62389;51.412;5.436;2023-05-21T10:19:37;101510.63;;;23.25;51.86
74045;BME280;62389;51.412;5.436;2023-05-21T10:22:03;101510.47;;;23.26;52.55
74045;BME280;62389;51.412;5.436;2023-05-21T10:24:29;101520.25;;;23.16;51.80
74045;BME280;62389;51.412;5.436;2023-05-21T10:26:56;101514.19;;;23.14;53.51
74045;BME280;62389;51.412;5.436;2023-05-21T10:29:22;101508.47;;;23.19;55.51
74045;BME280;62389;51.412;5.436;2023-05-21T10:31:48;101500.19;;;23.22;54.40
74045;BME280;62389;51.412;5.436;2023-05-21T10:34:14;101501.63;;;23.26;52.88
74045;BME280;62389;51.412;5.436;2023-05-21T10:36:40;101498.66;;;23.19;51.92
74045;BME280;62389;51.412;5.436;2023-05-21T10:39:08;101500.16;;;23.12;52.38
74045;BME280;62389;51.412;5.436;2023-05-21T10:41:45;101494.38;;;23.07;53.33
74045;BME280;62389;51.412;5.436;2023-05-21T10:44:43;101495.88;;;23.00;53.85
74045;BME280;62389;51.412;5.436;2023-05-21T10:50:33;101496.97;;;22.97;54.44
74045;BME280;62389;51.412;5.436;2023-05-21T10:53:21;101498.41;;;23.02;53.60
74045;BME280;62389;51.412;5.436;2023-05-21T11:01:37;101488.38;;;22.94;54.17
74045;BME280;62389;51.412;5.436;2023-05-21T11:04:03;101483.94;;;22.94;53.79
74045;BME280;62389;51.412;5.436;2023-05-21T11:06:30;101476.22;;;23.01;55.10
74045;BME280;62389;51.412;5.436;2023-05-21T11:08:55;101461.75;;;23.04;54.05
74045;BME280;62389;51.412;5.436;2023-05-21T11:11:43;101447.31;;;23.06;53.87
74045;BME280;62389;51.412;5.436;2023-05-21T11:14:54;101443.69;;;23.07;54.84
74045;BME280;62389;51.412;5.436;2023-05-21T11:17:38;101445.25;;;23.10;54.63
74045;BME280;62389;51.412;5.436;2023-05-21T11:20:07;101441.16;;;23.06;54.66
74045;BME280;62389;51.412;5.436;2023-05-21T11:22:34;101438.34;;;23.07;54.25
74045;BME280;62389;51.412;5.436;2023-05-21T11:25:01;101436.50;;;23.08;53.36
74045;BME280;62389;51.412;5.436;2023-05-21T11:27:38;101437.34;;;23.08;54.42
74045;BME280;62389;51.412;5.436;2023-05-21T11:30:07;101433.59;;;23.11;53.56
74045;BME280;62389;51.412;5.436;2023-05-21T11:32:37;101435.03;;;23.15;54.33
74045;BME280;62389;51.412;5.436;2023-05-21T11:35:03;101432.66;;;23.21;56.32
74045;BME280;62389;51.412;5.436;2023-05-21T11:37:30;101430.41;;;23.26;54.37
74045;BME280;62389;51.412;5.436;2023-05-21T11:39:57;101430.56;;;23.25;52.31
74045;BME280;62389;51.412;5.436;2023-05-21T11:44:55;101441.63;;;23.20;53.78
74045;BME280;62389;51.412;5.436;2023-05-21T11:47:22;101435.47;;;23.20;53.16
74045;BME280;62389;51.412;5.436;2023-05-21T11:49:47;101432.38;;;23.24;54.87
74045;BME280;62389;51.412;5.436;2023-05-21T11:52:13;101430.28;;;23.28;55.58
74045;BME280;62389;51.412;5.436;2023-05-21T11:54:43;101427.59;;;23.28;53.98
74045;BME280;62389;51.412;5.436;2023-05-21T11:57:11;101427.06;;;23.34;56.14
74045;BME280;62389;51.412;5.436;2023-05-21T11:59:36;101421.31;;;23.39;53.71
74045;BME280;62389;51.412;5.436;2023-05-21T12:02:02;101412.47;;;23.38;54.08
74045;BME280;62389;51.412;5.436;2023-05-21T12:04:33;101422.88;;;23.41;55.58
74045;BME280;62389;51.412;5.436;2023-05-21T12:07:05;101417.13;;;23.46;53.42
74045;BME280;62389;51.412;5.436;2023-05-21T12:09:48;101417.84;;;23.48;55.01
74045;BME280;62389;51.412;5.436;2023-05-21T12:12:14;101417.00;;;23.47;54.95
74045;BME280;62389;51.412;5.436;2023-05-21T12:14:48;101409.56;;;23.51;53.73
74045;BME280;62389;51.412;5.436;2023-05-21T12:17:24;101403.66;;;23.57;54.81
74045;BME280;62389;51.412;5.436;2023-05-21T12:19:54;101400.22;;;23.66;54.53
74045;BME280;62389;51.412;5.436;2023-05-21T12:22:22;101410.47;;;23.71;53.24
74045;BME280;62389;51.412;5.436;2023-05-21T12:24:49;101397.97;;;23.71;53.62
74045;BME280;62389;51.412;5.436;2023-05-21T12:27:15;101398.81;;;23.72;53.18
74045;BME280;62389;51.412;5.436;2023-05-21T12:29:49;101414.69;;;23.73;53.21
74045;BME280;62389;51.412;5.436;2023-05-21T12:32:16;101415.41;;;23.75;52.44
74045;BME280;62389;51.412;5.436;2023-05-21T12:37:15;101408.66;;;23.91;52.26
74045;BME280;62389;51.412;5.436;2023-05-21T12:39:46;101409.50;;;23.82;53.17
74045;BME280;62389;51.412;5.436;2023-05-21T12:42:12;101403.16;;;23.83;54.30
74045;BME280;62389;51.412;5.436;2023-05-21T12:44:46;101415.84;;;23.90;56.17
74045;BME280;62389;51.412;5.436;2023-05-21T12:47:12;101415.56;;;24.03;54.10
74045;BME280;62389;51.412;5.436;2023-05-21T12:49:45;101407.13;;;24.17;52.53
74045;BME280;62389;51.412;5.436;2023-05-21T12:52:14;101412.59;;;24.25;54.36
74045;BME280;62389;51.412;5.436;2023-05-21T12:54:44;101421.34;;;24.37;53.36
74045;BME280;62389;51.412;5.436;2023-05-21T12:57:13;101408.13;;;24.45;55.71
74045;BME280;62389;51.412;5.436;2023-05-21T13:04:44;101417.06;;;24.64;51.99
74045;BME280;62389;51.412;5.436;2023-05-21T13:07:10;101425.78;;;24.75;53.65
74045;BME280;62389;51.412;5.436;2023-05-21T13:09:35;101423.78;;;24.87;50.91
74045;BME280;62389;51.412;5.436;2023-05-21T13:12:00;101422.88;;;25.06;51.48
74045;BME280;62389;51.412;5.436;2023-05-21T13:14:26;101427.03;;;25.73;49.94